createdAt,value
2019-02-17T00:01:49.934Z,31.63
2019-02-17T00:04:19.379Z,32.80
2019-02-17T00:06:48.854Z,34.10
2019-02-17T00:09:18.243Z,33.50
2019-02-17T00:11:47.862Z,31.80
2019-02-17T00:14:17.294Z,33.73
2019-02-17T00:16:46.650Z,33.33
2019-02-17T00:19:16.109Z,34.27
2019-02-17T00:21:45.468Z,34.07
2019-02-17T00:24:15.065Z,32.80
2019-02-17T00:26:44.515Z,32.13
2019-02-17T00:29:13.876Z,34.47
2019-02-17T00:31:43.330Z,32.97
2019-02-17T00:34:13.795Z,32.93
2019-02-17T00:36:43.424Z,32.23
2019-02-17T00:39:12.967Z,30.43
2019-02-17T00:41:42.456Z,34.07
2019-02-17T00:44:11.905Z,33.07
2019-02-17T00:46:41.255Z,31.03
2019-02-17T00:49:10.630Z,34.30
2019-02-17T00:51:40.187Z,30.00
2019-02-17T00:54:09.637Z,30.40
2019-02-17T00:56:39.039Z,26.27
2019-02-17T00:59:10.429Z,30.50
2019-02-17T01:01:39.625Z,27.47
2019-02-17T01:04:08.981Z,26.73
2019-02-17T01:06:38.483Z,23.87
2019-02-17T01:09:07.887Z,28.30
2019-02-17T01:11:37.338Z,29.70
2019-02-17T01:14:06.785Z,24.43
2019-02-17T01:16:36.128Z,26.73
2019-02-17T01:19:05.538Z,28.53
2019-02-17T01:21:34.909Z,29.27
2019-02-17T01:24:04.346Z,28.90
2019-02-17T01:26:33.757Z,27.63
2019-02-17T01:29:03.132Z,27.77
2019-02-17T01:31:32.566Z,27.53
2019-02-17T01:34:09.904Z,29.47
2019-02-17T01:36:39.353Z,29.33
2019-02-17T01:39:09.002Z,30.40
2019-02-17T01:41:38.446Z,31.23
2019-02-17T01:44:07.997Z,30.57
2019-02-17T01:46:38.523Z,30.33
2019-02-17T01:49:08.133Z,32.30
2019-02-17T01:51:37.516Z,31.73
2019-02-17T01:54:06.843Z,29.50
2019-02-17T01:56:36.282Z,30.93
2019-02-17T01:59:05.682Z,32.70
2019-02-17T02:01:35.107Z,33.70
2019-02-17T02:04:04.462Z,30.67
2019-02-17T02:06:33.913Z,34.37
2019-02-17T02:09:04.193Z,33.77
2019-02-17T02:11:33.736Z,30.90
2019-02-17T02:14:03.398Z,31.00
2019-02-17T02:16:32.782Z,31.57
2019-02-17T02:19:02.257Z,27.30
2019-02-17T02:21:31.622Z,25.63
2019-02-17T02:24:01.030Z,27.53
2019-02-17T02:26:30.462Z,28.83
2019-02-17T02:28:59.867Z,27.93
2019-02-17T02:31:29.279Z,28.30
2019-02-17T02:33:58.737Z,28.87
2019-02-17T02:36:28.309Z,25.83
2019-02-17T02:38:57.725Z,27.23
2019-02-17T02:41:34.331Z,19.37
2019-02-17T02:43:58.274Z,22.67
2019-02-17T02:46:27.711Z,20.10
2019-02-17T02:48:57.094Z,22.50
2019-02-17T02:51:26.472Z,24.43
2019-02-17T02:53:55.915Z,27.40
2019-02-17T02:56:25.330Z,28.33
2019-02-17T02:58:54.902Z,28.53
2019-02-17T03:01:24.263Z,26.57
2019-02-17T03:03:53.575Z,25.33
2019-02-17T03:06:29.717Z,27.03
2019-02-17T03:08:59.451Z,23.63
2019-02-17T03:11:28.845Z,29.27
2019-02-17T03:13:58.221Z,29.03
2019-02-17T03:16:27.725Z,26.83
2019-02-17T03:18:57.049Z,29.40
2019-02-17T03:21:26.426Z,29.37
2019-02-17T03:23:55.907Z,28.50
2019-02-17T03:26:25.355Z,27.20
2019-02-17T03:28:54.801Z,28.20
2019-02-17T03:31:24.160Z,29.83
2019-02-17T03:33:53.612Z,27.53
2019-02-17T03:36:23.026Z,30.17
2019-02-17T03:38:52.542Z,25.80
2019-02-17T03:41:21.942Z,29.47
2019-02-17T03:43:51.335Z,27.47
2019-02-17T03:46:20.673Z,27.97
2019-02-17T03:48:50.202Z,25.40
2019-02-17T03:51:19.644Z,28.03
2019-02-17T03:53:49.117Z,30.23
2019-02-17T03:56:18.559Z,29.77
2019-02-17T03:58:47.950Z,24.37
2019-02-17T04:01:17.366Z,28.17
2019-02-17T04:03:46.679Z,27.70
2019-02-17T04:06:16.073Z,27.30
2019-02-17T04:08:45.525Z,27.33
2019-02-17T04:11:14.960Z,27.97
2019-02-17T04:13:44.308Z,31.90
2019-02-17T04:16:13.761Z,28.40
2019-02-17T04:18:43.113Z,29.07
2019-02-17T04:21:12.565Z,29.70
2019-02-17T04:23:42.063Z,31.20
2019-02-17T04:26:11.510Z,30.47
2019-02-17T04:28:40.923Z,31.97
2019-02-17T04:31:10.327Z,31.47
2019-02-17T04:33:39.794Z,30.67
2019-02-17T04:36:09.162Z,32.07
2019-02-17T04:38:38.582Z,28.90
2019-02-17T04:41:08.028Z,32.07
2019-02-17T04:43:37.514Z,33.87
2019-02-17T04:46:06.939Z,30.67
2019-02-17T04:48:36.538Z,33.87
2019-02-17T04:51:05.935Z,33.83
2019-02-17T04:53:35.357Z,33.77
2019-02-17T04:56:04.798Z,33.20
2019-02-17T04:58:34.134Z,33.50
2019-02-17T05:01:03.591Z,34.47
2019-02-17T05:03:32.960Z,35.40
2019-02-17T05:06:02.451Z,34.23
2019-02-17T05:08:31.898Z,36.87
2019-02-17T05:11:01.255Z,31.73
2019-02-17T05:13:30.723Z,34.60
2019-02-17T05:16:00.106Z,34.97
2019-02-17T05:18:29.523Z,33.03
2019-02-17T05:20:58.879Z,34.47
2019-02-17T05:23:28.221Z,33.93
2019-02-17T05:25:57.671Z,33.00
2019-02-17T05:28:27.072Z,27.93
2019-02-17T05:30:56.479Z,30.97
2019-02-17T05:33:25.917Z,34.40
2019-02-17T05:35:55.322Z,34.77
2019-02-17T05:38:24.690Z,35.03
2019-02-17T05:40:54.136Z,34.73
2019-02-17T05:43:23.546Z,34.17
2019-02-17T05:45:53.049Z,33.60
2019-02-17T05:48:22.454Z,32.23
2019-02-17T05:50:51.872Z,29.47
2019-02-17T05:53:21.302Z,30.07
2019-02-17T05:55:50.706Z,35.03
2019-02-17T05:58:20.158Z,30.53
2019-02-17T06:00:49.655Z,31.33
2019-02-17T06:03:19.209Z,27.13
2019-02-17T06:05:48.637Z,33.13
2019-02-17T06:08:18.062Z,31.43
2019-02-17T06:10:47.518Z,31.37
2019-02-17T06:13:16.965Z,33.90
2019-02-17T06:15:46.315Z,28.80
2019-02-17T06:18:15.978Z,27.23
2019-02-17T06:20:45.394Z,35.23
2019-02-17T06:23:14.728Z,36.87
2019-02-17T06:25:44.170Z,33.63
2019-02-17T06:28:13.625Z,29.67
2019-02-17T06:30:42.981Z,31.67
2019-02-17T06:33:12.409Z,29.73
2019-02-17T06:35:41.849Z,35.27
2019-02-17T06:38:11.250Z,32.63
2019-02-17T06:40:40.682Z,32.00
2019-02-17T06:43:10.102Z,34.07
2019-02-17T06:45:39.559Z,30.33
2019-02-17T06:48:09.002Z,27.17
2019-02-17T06:50:38.366Z,34.97
2019-02-17T06:53:07.819Z,33.00
2019-02-17T06:55:48.126Z,27.87
2019-02-17T06:58:17.583Z,29.50
2019-02-17T07:00:49.732Z,22.97
2019-02-17T07:03:19.196Z,29.93
2019-02-17T07:06:10.728Z,31.17
2019-02-17T07:08:40.138Z,25.67
2019-02-17T07:11:09.658Z,31.87
2019-02-17T07:13:39.157Z,27.40
2019-02-17T07:16:08.537Z,31.20
2019-02-17T07:18:37.951Z,28.60
2019-02-17T07:21:07.419Z,29.40
2019-02-17T07:23:36.920Z,28.50
2019-02-17T07:26:06.392Z,21.20
2019-02-17T07:28:35.856Z,31.80
2019-02-17T07:31:05.439Z,25.23
2019-02-17T07:33:35.160Z,26.23
2019-02-17T07:36:04.734Z,24.33
2019-02-17T07:38:34.247Z,24.03
2019-02-17T07:41:03.714Z,23.87
2019-02-17T07:43:33.351Z,23.33
2019-02-17T07:46:02.686Z,21.87
2019-02-17T07:48:32.089Z,26.83
2019-02-17T07:51:01.536Z,27.50
2019-02-17T07:53:30.931Z,27.33
2019-02-17T07:56:00.438Z,24.83
2019-02-17T07:58:29.943Z,29.23
2019-02-17T08:00:59.361Z,31.50
2019-02-17T08:03:28.866Z,25.53
2019-02-17T08:05:58.205Z,30.57
2019-02-17T08:08:27.696Z,30.33
2019-02-17T08:11:03.689Z,28.00
2019-02-17T08:13:28.222Z,19.17
2019-02-17T08:15:57.654Z,26.23
2019-02-17T08:18:27.194Z,28.17
2019-02-17T08:20:56.624Z,26.50
2019-02-17T08:23:26.067Z,28.13
2019-02-17T08:25:55.435Z,29.07
2019-02-17T08:28:24.769Z,27.87
2019-02-17T08:30:54.247Z,29.23
2019-02-17T08:33:23.594Z,24.70
2019-02-17T08:35:53.062Z,23.47
2019-02-17T08:38:22.419Z,26.00
2019-02-17T08:40:51.984Z,28.77
2019-02-17T08:43:21.493Z,27.10
2019-02-17T08:45:50.966Z,15.47
2019-02-17T08:48:20.288Z,25.33
2019-02-17T08:50:49.886Z,23.80
2019-02-17T08:53:19.417Z,24.07
2019-02-17T08:55:48.799Z,17.73
2019-02-17T08:58:18.266Z,25.63
2019-02-17T09:00:47.609Z,17.90
2019-02-17T09:03:17.057Z,24.53
2019-02-17T09:05:46.407Z,21.70
2019-02-17T09:08:15.860Z,27.47
2019-02-17T09:10:45.489Z,25.67
2019-02-17T09:13:14.950Z,28.53
2019-02-17T09:15:44.377Z,24.03
2019-02-17T09:18:14.067Z,26.93
2019-02-17T09:20:43.602Z,27.80
2019-02-17T09:23:12.995Z,26.87
2019-02-17T09:25:42.446Z,26.53
2019-02-17T09:28:11.994Z,25.13
2019-02-17T09:30:41.351Z,24.43
2019-02-17T09:33:10.814Z,28.40
2019-02-17T09:35:40.164Z,21.30
2019-02-17T09:38:09.626Z,25.03
2019-02-17T09:40:38.965Z,26.63
2019-02-17T09:43:08.415Z,20.30
2019-02-17T09:45:37.799Z,27.73
2019-02-17T09:48:07.222Z,20.60
2019-02-17T09:50:36.632Z,24.40
2019-02-17T09:53:06.114Z,24.83
2019-02-17T09:55:35.546Z,26.63
2019-02-17T09:58:05.033Z,24.17
2019-02-17T10:00:34.407Z,20.63
2019-02-17T10:03:03.834Z,25.03
2019-02-17T10:05:33.193Z,24.73
2019-02-17T10:08:02.637Z,16.90
2019-02-17T10:10:31.977Z,28.50
2019-02-17T10:13:01.603Z,25.97
2019-02-17T10:15:30.972Z,28.03
2019-02-17T10:18:00.481Z,25.77
2019-02-17T10:20:29.880Z,20.23
2019-02-17T10:22:59.497Z,24.20
2019-02-17T10:25:28.914Z,19.20
2019-02-17T10:27:58.462Z,26.27
2019-02-17T10:30:27.927Z,18.77
2019-02-17T10:32:57.326Z,23.30
2019-02-17T10:35:26.920Z,23.20
2019-02-17T10:37:56.370Z,23.50
2019-02-17T10:40:25.853Z,23.03
2019-02-17T10:42:55.415Z,29.40
2019-02-17T10:45:24.831Z,28.80
2019-02-17T10:47:54.422Z,24.93
2019-02-17T10:50:23.857Z,24.63
2019-02-17T10:52:53.338Z,22.03
2019-02-17T10:55:22.812Z,19.37
2019-02-17T10:57:52.133Z,23.90
2019-02-17T11:00:21.610Z,21.47
2019-02-17T11:02:52.043Z,21.63
2019-02-17T11:05:21.558Z,20.87
2019-02-17T11:07:50.953Z,22.23
2019-02-17T11:10:20.339Z,23.83
2019-02-17T11:12:49.708Z,20.17
2019-02-17T11:15:19.498Z,19.03
2019-02-17T11:17:48.941Z,17.10
2019-02-17T11:20:18.407Z,17.83
2019-02-17T11:22:48.468Z,21.30
2019-02-17T11:25:17.886Z,21.07
2019-02-17T11:27:47.279Z,19.77
2019-02-17T11:30:17.022Z,19.30
2019-02-17T11:32:56.726Z,19.17
2019-02-17T11:35:17.666Z,22.57
2019-02-17T11:37:47.079Z,22.97
2019-02-17T11:40:16.536Z,18.07
2019-02-17T11:42:45.926Z,23.97
2019-02-17T11:45:17.240Z,21.73
2019-02-17T11:47:46.870Z,18.73
2019-02-17T11:50:16.260Z,19.23
2019-02-17T11:52:45.710Z,19.70
2019-02-17T11:55:15.141Z,21.80
2019-02-17T11:57:44.463Z,16.33
2019-02-17T12:00:16.756Z,17.53
2019-02-17T12:02:46.158Z,11.10
2019-02-17T12:05:15.573Z,9.17
2019-02-17T12:07:44.958Z,13.83
2019-02-17T12:10:14.476Z,11.03
2019-02-17T12:12:44.225Z,7.10
2019-02-17T12:15:13.801Z,10.10
2019-02-17T12:17:43.143Z,13.30
2019-02-17T12:20:37.532Z,12.30
2019-02-17T12:23:13.806Z,14.40
2019-02-17T12:25:59.907Z,12.50
2019-02-17T12:28:36.504Z,15.03
2019-02-17T12:31:06.362Z,7.57
2019-02-17T12:33:35.762Z,13.20
2019-02-17T12:36:05.231Z,12.30
2019-02-17T12:38:34.716Z,13.43
2019-02-17T12:41:04.135Z,12.43
2019-02-17T12:43:33.546Z,15.50
2019-02-17T12:46:02.880Z,10.93
2019-02-17T12:48:32.262Z,9.50
2019-02-17T12:51:01.622Z,11.20
2019-02-17T12:53:30.966Z,10.33
2019-02-17T12:56:00.348Z,12.50
2019-02-17T12:58:30.369Z,6.23
2019-02-17T13:00:59.846Z,10.73
2019-02-17T13:03:29.198Z,9.10
2019-02-17T13:05:58.647Z,12.47
2019-02-17T13:08:28.062Z,12.20
2019-02-17T13:10:57.394Z,11.97
2019-02-17T13:13:26.749Z,12.40
2019-02-17T13:15:56.101Z,10.73
2019-02-17T13:18:25.559Z,9.10
2019-02-17T13:20:55.018Z,7.53
2019-02-17T13:23:24.609Z,9.73
2019-02-17T13:25:54.029Z,8.83
2019-02-17T13:28:23.421Z,10.43
2019-02-17T13:30:53.776Z,10.50
2019-02-17T13:33:23.446Z,11.63
2019-02-17T13:35:52.842Z,12.73
2019-02-17T13:38:22.283Z,12.57
2019-02-17T13:40:51.707Z,13.43
2019-02-17T13:43:21.175Z,20.40
2019-02-17T13:45:50.660Z,16.07
2019-02-17T13:48:20.114Z,18.03
2019-02-17T13:50:49.466Z,15.53
2019-02-17T13:53:18.930Z,15.77
2019-02-17T13:55:48.298Z,21.17
2019-02-17T13:58:17.747Z,19.43
2019-02-17T14:00:47.074Z,23.47
2019-02-17T14:03:16.632Z,27.87
2019-02-17T14:05:46.042Z,22.33
2019-02-17T14:08:15.395Z,18.67
2019-02-17T14:10:44.827Z,23.47
2019-02-17T14:13:14.498Z,20.90
2019-02-17T14:15:43.854Z,21.73
2019-02-17T14:18:13.378Z,20.63
2019-02-17T14:20:42.867Z,21.87
2019-02-17T14:23:12.222Z,19.27
2019-02-17T14:25:41.686Z,20.83
2019-02-17T14:28:11.102Z,17.87
2019-02-17T14:30:40.502Z,21.27
2019-02-17T14:33:09.858Z,20.70
2019-02-17T14:35:39.385Z,20.90
2019-02-17T14:38:08.901Z,17.80
2019-02-17T14:40:38.291Z,18.90
2019-02-17T14:43:07.618Z,16.93
2019-02-17T14:45:37.178Z,18.87
2019-02-17T14:48:06.568Z,20.33
2019-02-17T14:50:35.995Z,20.33
2019-02-17T14:53:05.467Z,19.10
2019-02-17T14:55:34.990Z,15.40
2019-02-17T14:58:05.689Z,19.67
2019-02-17T15:00:35.496Z,21.73
2019-02-17T15:03:04.888Z,21.97
2019-02-17T15:05:34.281Z,20.30
2019-02-17T15:08:03.784Z,19.97
2019-02-17T15:10:33.213Z,19.97
2019-02-17T15:13:02.662Z,21.80
2019-02-17T15:15:32.218Z,16.40
2019-02-17T15:18:01.643Z,22.10
2019-02-17T15:20:31.226Z,22.57
2019-02-17T15:23:00.744Z,22.87
2019-02-17T15:25:30.330Z,21.57
2019-02-17T15:27:59.920Z,22.10
2019-02-17T15:30:31.148Z,21.60
2019-02-17T15:33:04.116Z,20.93
2019-02-17T15:35:31.815Z,23.77
2019-02-17T15:38:01.289Z,20.10
2019-02-17T15:40:30.655Z,24.67
2019-02-17T15:43:00.343Z,23.50
2019-02-17T15:45:29.744Z,35.17
2019-02-17T15:47:59.161Z,24.37
2019-02-17T15:50:28.626Z,21.57
2019-02-17T15:52:58.145Z,24.60
2019-02-17T15:55:27.564Z,22.43
2019-02-17T15:57:56.983Z,20.93
2019-02-17T16:00:26.420Z,23.53
2019-02-17T16:02:55.802Z,22.93
2019-02-17T16:05:25.182Z,21.07
2019-02-17T16:07:54.646Z,22.67
2019-02-17T16:10:24.076Z,23.77
2019-02-17T16:12:53.563Z,24.07
2019-02-17T16:15:23.290Z,25.43
2019-02-17T16:17:52.740Z,23.37
2019-02-17T16:20:22.074Z,27.00
2019-02-17T16:22:51.570Z,27.10
2019-02-17T16:25:20.979Z,25.00
2019-02-17T16:27:50.382Z,27.37
2019-02-17T16:30:19.760Z,27.13
2019-02-17T16:32:49.300Z,31.13
2019-02-17T16:35:18.754Z,38.77
2019-02-17T16:37:48.167Z,26.20
2019-02-17T16:40:17.771Z,24.50
2019-02-17T16:42:47.241Z,22.47
2019-02-17T16:45:16.730Z,21.37
2019-02-17T16:47:46.177Z,24.73
2019-02-17T16:50:17.775Z,27.43
2019-02-17T16:52:47.239Z,23.43
2019-02-17T16:55:16.588Z,26.33
2019-02-17T16:57:46.031Z,21.80
2019-02-17T17:00:18.345Z,24.97
2019-02-17T17:02:48.036Z,22.30
2019-02-17T17:05:17.677Z,22.73
2019-02-17T17:07:47.186Z,28.80
2019-02-17T17:10:16.624Z,25.37
2019-02-17T17:12:46.086Z,20.50
2019-02-17T17:15:15.997Z,26.30
2019-02-17T17:17:45.736Z,27.50
2019-02-17T17:20:15.969Z,28.43
2019-02-17T17:22:45.323Z,24.73
2019-02-17T17:25:15.327Z,30.13
2019-02-17T17:27:44.951Z,37.90
2019-02-17T17:30:14.475Z,23.40
2019-02-17T17:32:44.261Z,27.47
2019-02-17T17:35:13.875Z,30.77
2019-02-17T17:37:43.446Z,35.70
2019-02-17T17:40:12.846Z,36.10
2019-02-17T17:42:42.284Z,40.47
2019-02-17T17:45:13.262Z,21.60
2019-02-17T17:47:42.634Z,20.63
2019-02-17T17:50:13.282Z,24.33
2019-02-17T17:52:42.756Z,24.20
2019-02-17T17:55:12.900Z,23.97
2019-02-17T17:57:44.902Z,21.00
2019-02-17T18:00:16.922Z,22.70
2019-02-17T18:02:46.349Z,25.70
2019-02-17T18:05:16.103Z,23.00
2019-02-17T18:07:45.509Z,27.63
2019-02-17T18:10:15.300Z,24.50
2019-02-17T18:12:44.829Z,27.27
2019-02-17T18:15:14.658Z,25.63
2019-02-17T18:17:53.472Z,21.37
2019-02-17T18:20:15.185Z,23.63
2019-02-17T18:22:44.631Z,20.07
2019-02-17T18:25:14.387Z,23.33
2019-02-17T18:27:43.802Z,28.60
2019-02-17T18:30:16.555Z,31.73
2019-02-17T18:32:46.339Z,30.80
2019-02-17T18:35:19.918Z,31.80
2019-02-17T18:37:46.891Z,32.77
2019-02-17T18:40:16.594Z,34.63
2019-02-17T18:42:46.196Z,35.00
2019-02-17T18:45:15.610Z,31.27
2019-02-17T18:47:45.046Z,32.83
2019-02-17T18:50:14.614Z,34.97
2019-02-17T18:52:44.257Z,35.90
2019-02-17T18:55:13.931Z,29.73
2019-02-17T18:57:50.122Z,39.83
2019-02-17T19:00:15.381Z,41.67
2019-02-17T19:02:44.752Z,32.83
2019-02-17T19:05:14.438Z,34.43
2019-02-17T19:07:43.858Z,30.57
2019-02-17T19:10:13.377Z,27.50
2019-02-17T19:12:42.949Z,31.27
2019-02-17T19:15:13.261Z,29.43
2019-02-17T19:17:42.586Z,30.50
2019-02-17T19:20:14.263Z,35.50
2019-02-17T19:22:43.708Z,34.23
2019-02-17T19:25:13.084Z,34.03
2019-02-17T19:27:42.454Z,33.67
2019-02-17T19:30:13.301Z,32.70
2019-02-17T19:32:42.739Z,32.67
2019-02-17T19:35:12.850Z,30.70
2019-02-17T19:37:42.316Z,35.00
2019-02-17T19:40:12.181Z,32.53
2019-02-17T19:42:41.919Z,28.73
2019-02-17T19:45:12.501Z,30.60
2019-02-17T19:47:42.082Z,30.50
2019-02-17T19:50:11.966Z,30.17
2019-02-17T19:52:41.382Z,29.73
2019-02-17T19:55:11.612Z,32.00
2019-02-17T19:57:41.018Z,32.50
2019-02-17T20:00:12.335Z,32.23
2019-02-17T20:03:12.801Z,33.03
2019-02-17T20:05:51.560Z,32.03
2019-02-17T20:08:15.848Z,36.17
2019-02-17T20:10:45.685Z,38.50
2019-02-17T20:13:15.102Z,33.83
2019-02-17T20:15:44.482Z,45.43
2019-02-17T20:18:14.042Z,36.73
2019-02-17T20:20:43.416Z,38.43
2019-02-17T20:23:12.923Z,36.57
2019-02-17T20:25:42.346Z,37.67
2019-02-17T20:28:11.781Z,38.13
2019-02-17T20:30:41.326Z,35.43
2019-02-17T20:33:10.778Z,35.10
2019-02-17T20:35:40.139Z,42.97
2019-02-17T20:38:09.626Z,57.77
2019-02-17T20:40:39.186Z,59.00
2019-02-17T20:43:08.734Z,40.30
2019-02-17T20:45:38.218Z,42.10
2019-02-17T20:48:07.562Z,47.13
2019-02-17T20:50:36.995Z,44.57
2019-02-17T20:53:06.374Z,69.90
2019-02-17T20:55:36.061Z,51.67
2019-02-17T20:58:05.449Z,41.47
2019-02-17T21:00:35.018Z,46.07
2019-02-17T21:03:04.464Z,41.33
2019-02-17T21:05:33.905Z,40.07
2019-02-17T21:08:03.306Z,38.00
2019-02-17T21:10:32.658Z,38.60
2019-02-17T21:13:02.123Z,41.27
2019-02-17T21:15:31.476Z,40.73
2019-02-17T21:18:01.027Z,40.20
2019-02-17T21:20:30.634Z,40.40
2019-02-17T21:22:59.966Z,40.83
2019-02-17T21:25:29.277Z,49.93
2019-02-17T21:27:58.734Z,54.20
2019-02-17T21:30:28.086Z,49.80
2019-02-17T21:32:57.685Z,57.07
2019-02-17T21:35:27.295Z,51.53
2019-02-17T21:37:56.812Z,51.17
2019-02-17T21:40:26.212Z,50.13
2019-02-17T21:42:55.610Z,58.00
2019-02-17T21:45:25.079Z,55.30
2019-02-17T21:47:54.361Z,42.57
2019-02-17T21:50:23.871Z,43.97
2019-02-17T21:52:53.411Z,45.03
2019-02-17T21:55:22.822Z,48.67
2019-02-17T21:57:52.227Z,48.27
2019-02-17T22:00:21.831Z,42.33
2019-02-17T22:02:51.219Z,40.93
2019-02-17T22:05:20.692Z,42.83
2019-02-17T22:07:50.187Z,40.30
2019-02-17T22:10:19.597Z,38.13
2019-02-17T22:12:51.147Z,37.80
2019-02-17T22:15:20.176Z,33.70
2019-02-17T22:17:49.565Z,31.40
2019-02-17T22:20:19.083Z,31.27
2019-02-17T22:22:48.479Z,30.30
2019-02-17T22:25:18.377Z,30.07
2019-02-17T22:27:47.907Z,29.23
2019-02-17T22:30:17.309Z,27.13
2019-02-17T22:32:46.784Z,25.27
2019-02-17T22:35:16.103Z,26.57
2019-02-17T22:37:45.545Z,23.40
2019-02-17T22:40:16.431Z,27.20
2019-02-17T22:42:45.756Z,27.90
2019-02-17T22:45:15.350Z,28.83
2019-02-17T22:47:44.770Z,31.00
2019-02-17T22:50:14.279Z,31.60
2019-02-17T22:52:44.515Z,29.50
2019-02-17T22:55:13.998Z,27.97
2019-02-17T22:57:43.454Z,26.90
2019-02-17T23:00:32.854Z,27.80
2019-02-17T23:03:02.374Z,27.67
2019-02-17T23:05:31.834Z,25.33
2019-02-17T23:08:02.462Z,25.87
2019-02-17T23:10:31.911Z,28.10
2019-02-17T23:13:01.749Z,25.70
2019-02-17T23:15:31.418Z,23.97
2019-02-17T23:18:00.874Z,26.80
2019-02-17T23:20:30.262Z,26.57
2019-02-17T23:22:59.731Z,25.73
2019-02-17T23:25:29.134Z,25.90
2019-02-17T23:27:58.519Z,25.47
2019-02-17T23:30:27.890Z,25.53
2019-02-17T23:32:57.261Z,24.70
2019-02-17T23:35:27.350Z,25.57
2019-02-17T23:37:56.843Z,23.97
2019-02-17T23:40:26.238Z,23.60
2019-02-17T23:42:55.553Z,22.10
2019-02-17T23:45:25.030Z,21.47
2019-02-17T23:47:54.429Z,22.70
2019-02-17T23:50:23.758Z,22.83
2019-02-17T23:52:54.650Z,24.77
2019-02-17T23:55:24.365Z,22.80
2019-02-17T23:57:53.711Z,22.77
